createdAt,value
2023-05-04T00:00:54.667Z,72.33
2023-05-04T00:01:57.541Z,72.85
2023-05-04T00:03:01.842Z,72.60
2023-05-04T00:04:04.933Z,72.29
2023-05-04T00:05:10.565Z,73.01
2023-05-04T00:06:13.535Z,72.32
2023-05-04T00:07:17.548Z,71.72
2023-05-04T00:08:20.441Z,71.76
2023-05-04T00:09:24.317Z,70.66
2023-05-04T00:10:28.413Z,71.56
2023-05-04T00:11:32.968Z,70.58
2023-05-04T00:12:36.152Z,70.63
2023-05-04T00:13:40.272Z,71.53
2023-05-04T00:14:44.884Z,71.00
2023-05-04T00:15:48.942Z,71.23
2023-05-04T00:16:51.894Z,70.27
2023-05-04T00:17:55.955Z,70.20
2023-05-04T00:18:58.691Z,70.06
2023-05-04T00:20:02.630Z,70.35
2023-05-04T00:21:05.715Z,69.44
2023-05-04T00:22:09.766Z,69.83
2023-05-04T00:23:12.629Z,70.06
2023-05-04T00:24:16.588Z,68.83
2023-05-04T00:25:19.564Z,69.62
2023-05-04T00:26:23.520Z,68.77
2023-05-04T00:27:26.896Z,69.69
2023-05-04T00:28:30.880Z,69.79
2023-05-04T00:29:33.419Z,70.94
2023-05-04T00:30:38.891Z,71.63
2023-05-04T00:31:41.892Z,69.48
2023-05-04T00:32:45.965Z,70.99
2023-05-04T00:33:49.053Z,70.95
2023-05-04T00:34:53.359Z,71.01
2023-05-04T00:35:56.021Z,70.22
2023-05-04T00:37:01.334Z,71.26
2023-05-04T00:38:06.897Z,69.64
2023-05-04T00:39:12.102Z,69.24
2023-05-04T00:40:17.164Z,68.88
2023-05-04T00:41:23.615Z,68.68
2023-05-04T00:42:30.488Z,68.47
2023-05-04T00:43:35.703Z,68.80
2023-05-04T00:44:41.571Z,69.51
2023-05-04T00:45:46.846Z,68.42
2023-05-04T00:46:49.574Z,68.42
2023-05-04T00:47:54.248Z,67.25
2023-05-04T00:48:56.896Z,68.96
2023-05-04T00:50:00.832Z,68.83
2023-05-04T00:51:04.187Z,67.78
2023-05-04T00:52:08.715Z,67.76
2023-05-04T00:53:12.018Z,69.50
2023-05-04T00:54:18.208Z,68.88
2023-05-04T00:55:21.557Z,67.90
2023-05-04T00:56:25.175Z,68.15
2023-05-04T00:57:29.109Z,68.43
2023-05-04T00:58:32.945Z,68.73
2023-05-04T00:59:36.549Z,68.11
2023-05-04T01:00:39.187Z,67.74
2023-05-04T01:01:44.444Z,67.87
2023-05-04T01:02:47.422Z,68.16
2023-05-04T01:03:53.090Z,68.46
2023-05-04T01:04:56.124Z,69.35
2023-05-04T01:06:09.444Z,67.65
2023-05-04T01:07:21.175Z,68.18
2023-05-04T01:08:29.172Z,68.09
2023-05-04T01:09:37.457Z,68.54
2023-05-04T01:10:48.754Z,68.47
2023-05-04T01:11:58.708Z,68.61
2023-05-04T01:13:06.666Z,68.53
2023-05-04T01:14:11.182Z,68.88
2023-05-04T01:15:15.750Z,68.68
2023-05-04T01:16:20.046Z,69.16
2023-05-04T01:17:25.379Z,68.77
2023-05-04T01:18:28.331Z,69.72
2023-05-04T01:19:32.161Z,69.09
2023-05-04T01:20:35.309Z,68.33
2023-05-04T01:21:40.668Z,68.38
2023-05-04T01:22:43.970Z,68.38
2023-05-04T01:23:47.961Z,67.38
2023-05-04T01:24:51.199Z,67.90
2023-05-04T01:26:02.417Z,68.38
2023-05-04T01:27:10.045Z,69.44
2023-05-04T01:28:19.842Z,68.26
2023-05-04T01:29:28.000Z,68.06
2023-05-04T01:30:37.503Z,68.65
2023-05-04T01:31:40.816Z,69.16
2023-05-04T01:32:46.388Z,69.33
2023-05-04T01:33:52.195Z,68.29
2023-05-04T01:34:55.987Z,68.99
2023-05-04T01:35:59.995Z,69.39
2023-05-04T01:37:05.520Z,70.04
2023-05-04T01:38:08.614Z,69.75
2023-05-04T01:39:16.192Z,68.69
2023-05-04T01:40:19.014Z,69.06
2023-05-04T01:41:22.994Z,69.26
2023-05-04T01:42:25.847Z,69.82
2023-05-04T01:43:31.259Z,69.13
2023-05-04T01:44:34.141Z,69.45
2023-05-04T01:45:38.289Z,69.49
2023-05-04T01:46:41.208Z,69.30
2023-05-04T01:47:45.028Z,69.65
2023-05-04T01:48:47.524Z,69.84
2023-05-04T01:49:51.004Z,69.44
2023-05-04T01:50:53.421Z,69.83
2023-05-04T01:51:57.167Z,69.78
2023-05-04T01:53:01.054Z,70.51
2023-05-04T01:54:04.452Z,69.47
2023-05-04T01:55:07.556Z,70.15
2023-05-04T01:56:11.754Z,69.93
2023-05-04T01:57:14.151Z,69.97
2023-05-04T01:58:19.648Z,70.09
2023-05-04T01:59:22.154Z,69.90
2023-05-04T02:00:25.956Z,69.86
2023-05-04T02:01:28.853Z,70.32
2023-05-04T02:02:32.333Z,70.25
2023-05-04T02:03:34.872Z,70.05
2023-05-04T02:04:38.353Z,69.16
2023-05-04T02:05:40.991Z,69.26
2023-05-04T02:06:44.692Z,69.03
2023-05-04T02:07:47.211Z,68.77
2023-05-04T02:08:52.418Z,68.75
2023-05-04T02:09:54.817Z,69.03
2023-05-04T02:10:58.351Z,69.42
2023-05-04T02:12:00.779Z,69.70
2023-05-04T02:13:04.299Z,69.08
2023-05-04T02:14:06.814Z,68.70
2023-05-04T02:15:10.968Z,68.67
2023-05-04T02:16:13.526Z,68.38
2023-05-04T02:17:17.217Z,68.59
2023-05-04T02:18:20.087Z,68.57
2023-05-04T02:19:24.101Z,68.61
2023-05-04T02:20:27.822Z,68.91
2023-05-04T02:21:31.206Z,69.12
2023-05-04T02:22:33.774Z,68.63
2023-05-04T02:23:37.618Z,68.59
2023-05-04T02:24:41.768Z,68.36
2023-05-04T02:25:45.652Z,67.88
2023-05-04T02:26:48.284Z,68.36
2023-05-04T02:27:52.245Z,67.53
2023-05-04T02:28:54.892Z,67.70
2023-05-04T02:29:59.467Z,68.26
2023-05-04T02:31:01.939Z,67.93
2023-05-04T02:32:05.915Z,67.66
2023-05-04T02:33:08.420Z,67.55
2023-05-04T02:34:12.292Z,67.18
2023-05-04T02:35:14.705Z,67.66
2023-05-04T02:36:18.068Z,67.21
2023-05-04T02:37:20.350Z,66.57
2023-05-04T02:38:23.799Z,66.41
2023-05-04T02:39:26.198Z,66.66
2023-05-04T02:40:31.622Z,66.53
2023-05-04T02:41:34.475Z,66.25
2023-05-04T02:42:37.954Z,66.53
2023-05-04T02:43:40.378Z,66.59
2023-05-04T02:44:44.119Z,65.69
2023-05-04T02:45:46.653Z,66.82
2023-05-04T02:46:50.322Z,66.33
2023-05-04T02:47:52.907Z,66.80
2023-05-04T02:48:56.578Z,66.76
2023-05-04T02:49:59.102Z,66.52
2023-05-04T02:51:02.818Z,66.79
2023-05-04T02:52:05.692Z,67.02
2023-05-04T02:53:09.586Z,67.08
2023-05-04T02:54:12.378Z,67.29
2023-05-04T02:55:16.084Z,67.39
2023-05-04T02:56:20.152Z,67.50
2023-05-04T02:57:23.876Z,67.91
2023-05-04T02:58:26.398Z,67.85
2023-05-04T02:59:30.235Z,68.46
2023-05-04T03:00:33.084Z,68.38
2023-05-04T03:01:37.521Z,68.28
2023-05-04T03:02:40.220Z,68.25
2023-05-04T03:03:44.023Z,68.49
2023-05-04T03:04:47.001Z,68.49
2023-05-04T03:05:50.532Z,68.85
2023-05-04T03:06:53.509Z,68.95
2023-05-04T03:07:57.090Z,68.49
2023-05-04T03:09:00.369Z,68.40
2023-05-04T03:10:04.808Z,68.21
2023-05-04T03:11:07.491Z,68.33
2023-05-04T03:12:12.984Z,68.42
2023-05-04T03:13:16.866Z,68.24
2023-05-04T03:14:20.574Z,68.60
2023-05-04T03:15:23.383Z,68.66
2023-05-04T03:16:27.304Z,68.51
2023-05-04T03:17:30.681Z,68.49
2023-05-04T03:18:35.238Z,69.08
2023-05-04T03:19:38.015Z,69.54
2023-05-04T03:20:42.536Z,69.48
2023-05-04T03:21:45.705Z,69.21
2023-05-04T03:22:50.424Z,68.90
2023-05-04T03:23:53.098Z,68.33
2023-05-04T03:24:56.928Z,68.40
2023-05-04T03:26:00.098Z,68.53
2023-05-04T03:27:04.271Z,68.79
2023-05-04T03:28:08.294Z,68.32
2023-05-04T03:29:12.543Z,68.71
2023-05-04T03:30:15.377Z,68.53
2023-05-04T03:31:19.225Z,68.47
2023-05-04T03:32:21.927Z,68.27
2023-05-04T03:33:25.827Z,68.01
2023-05-04T03:34:28.425Z,68.15
2023-05-04T03:35:32.418Z,68.01
2023-05-04T03:36:36.691Z,68.19
2023-05-04T03:37:39.422Z,69.38
2023-05-04T03:38:43.264Z,69.65
2023-05-04T03:39:46.921Z,70.04
2023-05-04T03:40:49.848Z,69.15
2023-05-04T03:41:53.524Z,69.67
2023-05-04T03:42:56.294Z,69.37
2023-05-04T03:44:01.439Z,69.13
2023-05-04T03:45:04.516Z,69.50
2023-05-04T03:46:08.299Z,69.46
2023-05-04T03:47:11.891Z,69.33
2023-05-04T03:48:15.186Z,69.23
2023-05-04T03:49:19.093Z,69.79
2023-05-04T03:50:22.459Z,69.78
2023-05-04T03:51:26.111Z,69.47
2023-05-04T03:52:28.643Z,69.19
2023-05-04T03:53:32.053Z,69.52
2023-05-04T03:54:34.323Z,69.54
2023-05-04T03:55:37.810Z,69.62
2023-05-04T03:56:40.272Z,69.52
2023-05-04T03:57:43.596Z,69.84
2023-05-04T03:58:46.264Z,69.70
2023-05-04T03:59:51.274Z,69.52
2023-05-04T04:00:53.841Z,69.85
2023-05-04T04:01:57.807Z,70.01
2023-05-04T04:03:00.269Z,69.93
2023-05-04T04:04:04.010Z,69.71
2023-05-04T04:05:07.663Z,69.76
2023-05-04T04:06:13.604Z,69.49
2023-05-04T04:07:16.887Z,69.43
2023-05-04T04:08:20.939Z,69.55
2023-05-04T04:09:23.661Z,69.82
2023-05-04T04:10:27.335Z,69.37
2023-05-04T04:11:29.894Z,69.16
2023-05-04T04:12:33.767Z,68.89
2023-05-04T04:13:36.627Z,68.85
2023-05-04T04:14:41.262Z,69.08
2023-05-04T04:15:46.802Z,69.07
2023-05-04T04:16:50.741Z,69.08
2023-05-04T04:17:53.301Z,69.26
2023-05-04T04:18:57.481Z,69.05
2023-05-04T04:20:02.969Z,68.90
2023-05-04T04:21:08.684Z,69.23
2023-05-04T04:22:13.604Z,69.45
2023-05-04T04:23:19.561Z,69.31
2023-05-04T04:24:23.449Z,69.15
2023-05-04T04:25:26.226Z,68.95
2023-05-04T04:26:30.126Z,68.82
2023-05-04T04:27:32.734Z,68.58
2023-05-04T04:28:36.423Z,68.80
2023-05-04T04:29:39.928Z,68.49
2023-05-04T04:30:43.966Z,68.52
2023-05-04T04:31:48.457Z,68.38
2023-05-04T04:32:52.640Z,68.95
2023-05-04T04:33:56.441Z,68.62
2023-05-04T04:35:00.480Z,68.75
2023-05-04T04:36:03.352Z,68.80
2023-05-04T04:37:07.661Z,69.12
2023-05-04T04:38:10.860Z,69.12
2023-05-04T04:39:14.894Z,69.56
2023-05-04T04:40:18.455Z,70.10
2023-05-04T04:41:22.431Z,70.75
2023-05-04T04:42:25.279Z,71.57
2023-05-04T04:43:29.114Z,72.02
2023-05-04T04:44:32.287Z,73.05
2023-05-04T04:45:36.771Z,73.48
2023-05-04T04:46:39.514Z,73.45
2023-05-04T04:47:45.428Z,73.23
2023-05-04T04:48:49.620Z,72.98
2023-05-04T04:49:54.522Z,73.54
2023-05-04T04:50:57.535Z,72.89
2023-05-04T04:52:05.450Z,73.49
2023-05-04T04:53:09.316Z,73.10
2023-05-04T04:54:13.322Z,73.37
2023-05-04T04:55:17.633Z,73.77
2023-05-04T04:56:21.921Z,73.35
2023-05-04T04:57:25.165Z,73.46
2023-05-04T04:58:29.316Z,73.49
2023-05-04T04:59:32.351Z,73.97
2023-05-04T05:00:37.416Z,73.50
2023-05-04T05:01:43.065Z,73.75
2023-05-04T05:02:48.369Z,73.65
2023-05-04T05:03:51.259Z,73.63
2023-05-04T05:04:55.987Z,73.85
2023-05-04T05:06:01.900Z,73.93
2023-05-04T05:07:08.593Z,74.00
2023-05-04T05:08:11.634Z,74.06
2023-05-04T05:09:15.558Z,73.87
2023-05-04T05:10:21.360Z,74.12
2023-05-04T05:11:24.146Z,73.62
2023-05-04T05:12:27.782Z,73.45
2023-05-04T05:13:31.081Z,73.11
2023-05-04T05:14:35.441Z,73.02
2023-05-04T05:15:38.403Z,73.18
2023-05-04T05:16:42.995Z,72.95
2023-05-04T05:17:46.865Z,73.05
2023-05-04T05:18:50.413Z,73.40
2023-05-04T05:19:53.094Z,73.56
2023-05-04T05:20:56.902Z,73.58
2023-05-04T05:21:59.837Z,73.42
2023-05-04T05:23:03.484Z,73.26
2023-05-04T05:24:07.793Z,73.12
2023-05-04T05:25:10.503Z,72.66
2023-05-04T05:26:14.519Z,73.09
2023-05-04T05:27:17.425Z,73.30
2023-05-04T05:28:21.326Z,73.55
2023-05-04T05:29:23.915Z,73.44
2023-05-04T05:30:28.566Z,72.64
2023-05-04T05:31:32.064Z,72.23
2023-05-04T05:32:35.751Z,72.00
2023-05-04T05:33:39.889Z,72.04
2023-05-04T05:34:43.492Z,72.10
2023-05-04T05:35:47.825Z,72.01
2023-05-04T05:36:50.723Z,71.71
2023-05-04T05:37:54.254Z,72.26
2023-05-04T05:38:56.884Z,71.84
2023-05-04T05:40:00.491Z,71.66
2023-05-04T05:41:02.949Z,71.68
2023-05-04T05:42:06.885Z,71.46
2023-05-04T05:43:09.649Z,71.25
2023-05-04T05:44:13.547Z,71.81
2023-05-04T05:45:16.342Z,72.40
2023-05-04T05:46:20.378Z,72.00
2023-05-04T05:47:23.198Z,71.79
2023-05-04T05:48:27.066Z,71.82
2023-05-04T05:49:31.090Z,71.28
2023-05-04T05:50:36.338Z,71.88
2023-05-04T05:51:38.590Z,72.09
2023-05-04T05:52:42.542Z,71.98
2023-05-04T05:53:45.371Z,71.74
2023-05-04T05:54:48.940Z,71.87
2023-05-04T05:55:51.504Z,71.94
2023-05-04T05:56:55.150Z,71.72
2023-05-04T05:57:58.504Z,71.72
2023-05-04T05:59:00.883Z,71.40
2023-05-04T06:00:05.620Z,71.47
2023-05-04T06:01:08.273Z,71.18
2023-05-04T06:02:14.932Z,71.60
2023-05-04T06:03:19.029Z,71.21
2023-05-04T06:04:23.273Z,71.98
2023-05-04T06:05:28.823Z,71.47
2023-05-04T06:06:32.456Z,70.76
2023-05-04T06:07:36.039Z,70.96
2023-05-04T06:08:39.820Z,70.67
2023-05-04T06:09:42.312Z,70.73
2023-05-04T06:10:45.677Z,71.06
2023-05-04T06:11:48.180Z,71.00
2023-05-04T06:12:51.875Z,70.68
2023-05-04T06:13:54.979Z,71.10
2023-05-04T06:14:58.498Z,70.72
2023-05-04T06:16:01.470Z,71.22
2023-05-04T06:17:04.936Z,71.29
2023-05-04T06:18:07.684Z,70.80
2023-05-04T06:19:11.489Z,70.75
2023-05-04T06:20:13.957Z,70.46
2023-05-04T06:21:19.125Z,70.56
2023-05-04T06:22:21.705Z,69.87
2023-05-04T06:23:25.918Z,69.86
2023-05-04T06:24:30.217Z,70.07
2023-05-04T06:25:33.656Z,69.99
2023-05-04T06:26:36.269Z,69.28
2023-05-04T06:27:39.693Z,69.55
2023-05-04T06:28:43.516Z,70.07
2023-05-04T06:29:46.880Z,68.25
2023-05-04T06:30:51.084Z,68.66
2023-05-04T06:31:54.192Z,68.62
2023-05-04T06:32:58.181Z,68.63
2023-05-04T06:34:01.050Z,68.74
2023-05-04T06:35:04.927Z,67.73
2023-05-04T06:36:07.557Z,68.01
2023-05-04T06:37:14.044Z,67.57
2023-05-04T06:38:19.298Z,67.84
2023-05-04T06:39:22.332Z,67.71
2023-05-04T06:40:27.363Z,66.90
2023-05-04T06:41:30.892Z,66.70
2023-05-04T06:42:33.591Z,67.67
2023-05-04T06:43:37.276Z,68.17
2023-05-04T06:44:40.295Z,67.03
2023-05-04T06:45:43.807Z,66.79
2023-05-04T06:46:46.686Z,65.83
2023-05-04T06:47:50.730Z,64.95
2023-05-04T06:48:54.658Z,65.08
2023-05-04T06:49:58.192Z,65.05
2023-05-04T06:51:03.105Z,64.34
2023-05-04T06:52:06.235Z,63.78
2023-05-04T06:53:12.419Z,64.25
2023-05-04T06:54:14.902Z,64.73
2023-05-04T06:55:19.047Z,64.27
2023-05-04T06:56:22.028Z,64.07
2023-05-04T06:57:25.844Z,63.12
2023-05-04T06:58:28.539Z,62.23
2023-05-04T06:59:32.113Z,61.49
2023-05-04T07:00:35.125Z,61.02
2023-05-04T07:01:38.802Z,60.04
2023-05-04T07:02:42.003Z,59.52
2023-05-04T07:03:46.303Z,59.48
2023-05-04T07:04:50.063Z,59.81
2023-05-04T07:05:53.804Z,59.21
2023-05-04T07:06:56.687Z,59.09
2023-05-04T07:08:00.681Z,58.91
2023-05-04T07:09:05.658Z,58.39
2023-05-04T07:10:09.731Z,59.26
2023-05-04T07:11:12.277Z,58.07
2023-05-04T07:12:16.139Z,57.69
2023-05-04T07:13:18.665Z,57.36
2023-05-04T07:14:22.500Z,57.31
2023-05-04T07:15:25.360Z,56.80
2023-05-04T07:16:28.882Z,56.57
2023-05-04T07:17:32.690Z,56.65
2023-05-04T07:18:38.976Z,56.56
2023-05-04T07:19:43.330Z,56.21
2023-05-04T07:20:46.818Z,55.64
2023-05-04T07:21:50.610Z,55.54
2023-05-04T07:22:56.712Z,56.10
2023-05-04T07:23:59.534Z,55.67
2023-05-04T07:25:04.922Z,55.26
2023-05-04T07:26:08.294Z,55.84
2023-05-04T07:27:12.337Z,55.31
2023-05-04T07:28:16.825Z,55.10
2023-05-04T07:29:19.843Z,54.70
2023-05-04T07:30:23.644Z,54.52
2023-05-04T07:31:30.239Z,54.35
2023-05-04T07:32:34.615Z,54.21
2023-05-04T07:33:37.698Z,54.41
2023-05-04T07:34:45.990Z,54.06
2023-05-04T07:35:50.405Z,54.19
2023-05-04T07:36:54.600Z,54.21
2023-05-04T07:37:57.174Z,53.86
2023-05-04T07:39:01.142Z,53.22
2023-05-04T07:40:07.902Z,54.01
2023-05-04T07:41:11.111Z,53.90
2023-05-04T07:42:14.908Z,54.20
2023-05-04T07:43:18.689Z,54.10
2023-05-04T07:44:22.787Z,54.37
2023-05-04T07:45:27.058Z,54.64
2023-05-04T07:46:29.740Z,54.74
2023-05-04T07:47:33.637Z,54.97
2023-05-04T07:48:36.420Z,54.00
2023-05-04T07:49:40.604Z,53.73
2023-05-04T07:50:43.079Z,54.18
2023-05-04T07:51:46.919Z,53.20
2023-05-04T07:52:50.878Z,53.43
2023-05-04T07:53:54.774Z,53.04
2023-05-04T07:54:58.518Z,53.50
2023-05-04T07:56:12.453Z,53.50
2023-05-04T07:57:16.543Z,53.42
2023-05-04T07:58:20.326Z,52.40
2023-05-04T07:59:24.514Z,52.61
2023-05-04T08:00:28.821Z,53.76
2023-05-04T08:01:33.003Z,54.89
2023-05-04T08:02:37.150Z,53.40
2023-05-04T08:03:40.969Z,53.35
2023-05-04T08:04:44.857Z,53.05
2023-05-04T08:05:48.648Z,54.89
2023-05-04T08:06:52.615Z,57.05
2023-05-04T08:07:56.512Z,58.19
2023-05-04T08:09:00.344Z,58.25
2023-05-04T08:10:04.485Z,58.51
2023-05-04T08:11:20.449Z,59.19
2023-05-04T08:12:27.194Z,59.86
2023-05-04T08:13:31.204Z,60.78
2023-05-04T08:14:36.256Z,61.51
2023-05-04T08:15:42.295Z,61.04
2023-05-04T08:16:45.265Z,61.49
2023-05-04T08:17:49.482Z,61.86
2023-05-04T08:18:53.366Z,60.44
2023-05-04T08:19:57.333Z,62.21
2023-05-04T08:21:01.144Z,60.85
2023-05-04T08:22:04.561Z,61.42
2023-05-04T08:23:08.661Z,61.81
2023-05-04T08:24:12.853Z,62.65
2023-05-04T08:25:17.336Z,63.23
2023-05-04T08:26:21.933Z,63.12
2023-05-04T08:27:25.771Z,62.69
2023-05-04T08:28:29.397Z,62.19
2023-05-04T08:29:32.750Z,61.76
2023-05-04T08:30:36.336Z,62.05
2023-05-04T08:31:40.428Z,62.03
2023-05-04T08:32:44.208Z,61.98
2023-05-04T08:33:46.599Z,60.93
2023-05-04T08:34:50.906Z,60.91
2023-05-04T08:35:54.080Z,59.98
2023-05-04T08:36:58.084Z,59.83
2023-05-04T08:38:01.518Z,61.41
2023-05-04T08:39:05.287Z,61.75
2023-05-04T08:40:10.081Z,62.86
2023-05-04T08:41:13.741Z,63.53
2023-05-04T08:42:30.331Z,64.06
2023-05-04T08:43:36.180Z,64.28
2023-05-04T08:44:40.336Z,64.58
2023-05-04T08:45:44.061Z,65.10
2023-05-04T08:46:53.584Z,65.17
2023-05-04T08:47:57.996Z,64.37
2023-05-04T08:49:01.998Z,65.04
2023-05-04T08:50:07.616Z,64.83
2023-05-04T08:51:11.712Z,64.15
2023-05-04T08:52:16.434Z,63.34
2023-05-04T08:53:22.941Z,63.05
2023-05-04T08:54:27.862Z,63.55
2023-05-04T08:55:34.747Z,63.78
2023-05-04T08:56:41.620Z,63.03
2023-05-04T08:57:47.874Z,62.56
2023-05-04T08:58:53.782Z,62.39
2023-05-04T08:59:58.856Z,63.18
2023-05-04T09:01:03.407Z,62.96
2023-05-04T09:02:06.705Z,62.21
2023-05-04T09:03:12.825Z,62.17
2023-05-04T09:04:15.795Z,61.73
2023-05-04T09:05:20.966Z,61.34
2023-05-04T09:06:23.557Z,62.07
2023-05-04T09:07:27.619Z,62.16
2023-05-04T09:08:32.089Z,62.19
2023-05-04T09:09:37.114Z,62.92
2023-05-04T09:10:39.678Z,62.40
2023-05-04T09:11:43.373Z,62.42
2023-05-04T09:12:49.220Z,62.27
2023-05-04T09:13:52.342Z,62.27
2023-05-04T09:14:56.011Z,62.94
2023-05-04T09:15:59.432Z,63.24
2023-05-04T09:17:03.709Z,63.04
2023-05-04T09:18:10.146Z,62.44
2023-05-04T09:19:21.055Z,62.02
2023-05-04T09:20:25.134Z,62.61
2023-05-04T09:21:32.412Z,63.15
2023-05-04T09:22:35.935Z,62.46
2023-05-04T09:23:48.928Z,61.86
2023-05-04T09:24:53.503Z,62.09
2023-05-04T09:25:57.681Z,62.29
2023-05-04T09:27:11.280Z,62.32
2023-05-04T09:28:16.215Z,62.39
2023-05-04T09:29:19.738Z,63.09
2023-05-04T09:30:22.467Z,63.49
2023-05-04T09:31:26.698Z,62.85
2023-05-04T09:32:30.706Z,63.42
2023-05-04T09:33:33.396Z,64.00
2023-05-04T09:34:37.709Z,63.83
2023-05-04T09:35:41.647Z,64.33
2023-05-04T09:36:45.652Z,63.81
2023-05-04T09:37:49.094Z,64.12
2023-05-04T09:38:53.060Z,63.43
2023-05-04T09:39:57.155Z,64.26
2023-05-04T09:41:01.135Z,64.07
2023-05-04T09:42:04.117Z,63.74
2023-05-04T09:43:07.810Z,63.87
2023-05-04T09:44:21.462Z,63.79
2023-05-04T09:45:25.926Z,63.30
2023-05-04T09:46:29.566Z,63.93
2023-05-04T09:47:38.974Z,63.38
2023-05-04T09:48:52.081Z,63.32
2023-05-04T09:49:55.262Z,62.84
2023-05-04T09:51:00.922Z,63.71
2023-05-04T09:52:05.272Z,63.98
2023-05-04T09:53:09.958Z,63.58
2023-05-04T09:54:14.890Z,64.29
2023-05-04T09:55:19.513Z,63.81
2023-05-04T09:56:33.912Z,62.93
2023-05-04T09:57:37.001Z,63.93
2023-05-04T09:58:41.642Z,64.30
2023-05-04T09:59:46.924Z,64.03
2023-05-04T10:00:49.708Z,64.25
2023-05-04T10:01:54.328Z,63.99
2023-05-04T10:02:58.910Z,65.50
2023-05-04T10:04:04.105Z,65.80
2023-05-04T10:05:09.521Z,65.76
2023-05-04T10:06:12.784Z,65.46
2023-05-04T10:07:16.689Z,65.06
2023-05-04T10:08:20.574Z,65.66
2023-05-04T10:09:24.885Z,64.37
2023-05-04T10:10:28.945Z,64.59
2023-05-04T10:11:33.904Z,63.84
2023-05-04T10:12:36.766Z,64.71
2023-05-04T10:13:40.514Z,64.35
2023-05-04T10:14:47.012Z,64.69
2023-05-04T10:16:04.031Z,64.38
2023-05-04T10:17:20.775Z,64.73
2023-05-04T10:18:36.759Z,65.06
2023-05-04T10:20:03.594Z,64.05
2023-05-04T10:21:22.496Z,64.53
2023-05-04T10:22:39.978Z,63.45
2023-05-04T10:24:00.640Z,63.18
2023-05-04T10:25:28.166Z,64.07
2023-05-04T10:26:45.229Z,64.63
2023-05-04T10:28:01.552Z,65.08
2023-05-04T10:29:14.727Z,64.79
2023-05-04T10:30:20.517Z,64.08
2023-05-04T10:31:24.424Z,63.04
2023-05-04T10:32:28.606Z,63.34
2023-05-04T10:33:40.720Z,64.39
2023-05-04T10:34:45.460Z,64.46
2023-05-04T10:35:53.816Z,64.65
2023-05-04T10:36:58.101Z,65.09
2023-05-04T10:38:02.398Z,65.49
2023-05-04T10:39:06.561Z,64.76
2023-05-04T10:40:09.471Z,63.56
2023-05-04T10:41:16.908Z,63.81
2023-05-04T10:42:20.389Z,63.49
2023-05-04T10:43:24.307Z,63.19
2023-05-04T10:44:29.231Z,63.68
2023-05-04T10:45:39.636Z,63.44
2023-05-04T10:46:44.571Z,63.71
2023-05-04T10:47:58.768Z,63.01
2023-05-04T10:49:02.245Z,63.00
2023-05-04T10:50:06.165Z,62.61
2023-05-04T10:51:19.246Z,61.95
2023-05-04T10:52:22.967Z,61.71
2023-05-04T10:53:34.164Z,62.73
2023-05-04T10:54:37.634Z,63.21
2023-05-04T10:55:42.959Z,63.85
2023-05-04T10:56:46.888Z,64.37
2023-05-04T10:57:52.007Z,63.75
2023-05-04T10:58:56.644Z,64.35
2023-05-04T10:59:59.672Z,64.11
2023-05-04T11:01:13.356Z,63.36
2023-05-04T11:02:24.800Z,63.52
2023-05-04T11:03:39.462Z,62.63
2023-05-04T11:04:43.276Z,63.06
2023-05-04T11:05:50.989Z,63.06
2023-05-04T11:06:57.990Z,63.39
2023-05-04T11:08:01.602Z,63.75
2023-05-04T11:09:10.667Z,65.25
2023-05-04T11:10:24.263Z,65.49
2023-05-04T11:11:28.302Z,65.87
2023-05-04T11:12:33.600Z,66.24
2023-05-04T11:13:44.997Z,65.25
2023-05-04T11:14:48.622Z,65.48
2023-05-04T11:15:52.313Z,65.24
2023-05-04T11:17:19.754Z,64.24
2023-05-04T11:18:32.650Z,64.30
2023-05-04T11:19:36.140Z,64.37
2023-05-04T11:20:39.999Z,64.51
2023-05-04T11:21:44.067Z,64.25
2023-05-04T11:22:46.838Z,63.91
2023-05-04T11:23:56.338Z,64.07
2023-05-04T11:24:59.275Z,64.44
2023-05-04T11:26:07.940Z,65.05
2023-05-04T11:27:23.658Z,64.12
2023-05-04T11:28:34.888Z,63.14
2023-05-04T11:29:37.371Z,62.99
2023-05-04T11:30:43.901Z,63.05
2023-05-04T11:31:56.070Z,63.46
2023-05-04T11:33:00.510Z,63.51
2023-05-04T11:34:05.688Z,62.88
2023-05-04T11:35:11.707Z,62.25
2023-05-04T11:36:15.853Z,61.77
2023-05-04T11:37:20.122Z,61.63
2023-05-04T11:38:23.460Z,62.05
2023-05-04T11:39:27.316Z,61.46
2023-05-04T11:40:29.617Z,62.62
2023-05-04T11:41:34.235Z,64.07
2023-05-04T11:42:38.579Z,65.58
2023-05-04T11:43:44.115Z,66.56
2023-05-04T11:44:47.590Z,66.71
2023-05-04T11:45:52.027Z,67.15
2023-05-04T11:46:56.949Z,67.11
2023-05-04T11:48:00.621Z,67.25
2023-05-04T11:49:06.883Z,66.83
2023-05-04T11:50:12.011Z,67.95
2023-05-04T11:51:16.054Z,67.96
2023-05-04T11:52:26.046Z,68.15
2023-05-04T11:53:38.627Z,69.68
2023-05-04T11:54:42.461Z,69.32
2023-05-04T11:55:46.470Z,68.77
2023-05-04T11:56:49.607Z,68.76
2023-05-04T11:57:59.516Z,67.10
2023-05-04T11:59:10.793Z,66.72
2023-05-04T12:00:15.670Z,65.85
2023-05-04T12:01:19.777Z,66.47
2023-05-04T12:02:22.647Z,67.25
2023-05-04T12:03:43.224Z,66.82
2023-05-04T12:04:54.004Z,67.30
2023-05-04T12:05:59.719Z,67.82
2023-05-04T12:07:07.666Z,67.99
2023-05-04T12:08:12.695Z,68.06
2023-05-04T12:09:16.759Z,67.67
2023-05-04T12:10:27.335Z,67.84
2023-05-04T12:11:31.711Z,68.31
2023-05-04T12:12:37.432Z,67.99
2023-05-04T12:13:41.087Z,67.59
2023-05-04T12:14:57.062Z,67.56
2023-05-04T12:16:10.567Z,68.41
2023-05-04T12:17:14.703Z,68.49
2023-05-04T12:18:29.869Z,67.80
2023-05-04T12:19:33.977Z,67.22
2023-05-04T12:20:40.052Z,67.48
2023-05-04T12:21:52.672Z,67.99
2023-05-04T12:22:57.210Z,68.21
2023-05-04T12:24:01.808Z,68.36
2023-05-04T12:25:07.545Z,67.82
2023-05-04T12:26:13.622Z,68.02
2023-05-04T12:27:16.346Z,68.94
2023-05-04T12:28:21.206Z,69.18
2023-05-04T12:29:24.898Z,68.82
2023-05-04T12:30:29.726Z,68.43
2023-05-04T12:31:34.135Z,68.30
2023-05-04T12:32:36.845Z,68.12
2023-05-04T12:33:40.602Z,68.26
2023-05-04T12:34:44.191Z,68.59
2023-05-04T12:35:48.456Z,67.88
2023-05-04T12:36:52.810Z,66.63
2023-05-04T12:37:56.173Z,66.34
2023-05-04T12:39:00.232Z,66.58
2023-05-04T12:40:11.368Z,67.22
2023-05-04T12:41:21.874Z,67.90
2023-05-04T12:42:24.875Z,68.17
2023-05-04T12:43:28.435Z,67.85
2023-05-04T12:44:32.235Z,68.12
2023-05-04T12:45:35.153Z,67.79
2023-05-04T12:46:38.996Z,67.39
2023-05-04T12:47:42.101Z,67.34
2023-05-04T12:48:45.856Z,67.47
2023-05-04T12:49:48.446Z,66.91
2023-05-04T12:50:53.758Z,67.81
2023-05-04T12:51:58.302Z,67.00
2023-05-04T12:53:04.234Z,68.48
2023-05-04T12:54:07.756Z,69.00
2023-05-04T12:55:11.611Z,68.10
2023-05-04T12:56:15.230Z,68.60
2023-05-04T12:57:18.907Z,69.04
2023-05-04T12:58:22.192Z,68.91
2023-05-04T12:59:26.740Z,69.04
2023-05-04T13:00:31.571Z,69.33
2023-05-04T13:01:35.594Z,69.44
2023-05-04T13:02:39.832Z,69.75
2023-05-04T13:03:44.388Z,69.42
2023-05-04T13:04:48.488Z,69.31
2023-05-04T13:05:53.730Z,69.59
2023-05-04T13:06:58.230Z,69.57
2023-05-04T13:08:01.205Z,68.68
2023-05-04T13:09:06.251Z,68.62
2023-05-04T13:10:11.131Z,67.70
2023-05-04T13:11:16.036Z,66.83
2023-05-04T13:12:20.713Z,66.64
2023-05-04T13:13:28.912Z,65.46
2023-05-04T13:14:39.407Z,64.82
2023-05-04T13:15:43.067Z,64.45
2023-05-04T13:16:46.530Z,65.04
2023-05-04T13:17:50.095Z,65.48
2023-05-04T13:18:52.887Z,65.45
2023-05-04T13:19:56.373Z,65.65
2023-05-04T13:21:00.230Z,64.94
2023-05-04T13:22:04.037Z,65.21
2023-05-04T13:23:06.932Z,65.70
2023-05-04T13:24:11.533Z,66.55
2023-05-04T13:25:15.551Z,66.66
2023-05-04T13:26:20.241Z,67.65
2023-05-04T13:27:24.902Z,68.01
2023-05-04T13:28:28.271Z,67.66
2023-05-04T13:29:31.524Z,67.71
2023-05-04T13:30:33.796Z,67.53
2023-05-04T13:31:37.918Z,68.39
2023-05-04T13:32:40.929Z,68.61
2023-05-04T13:33:45.477Z,68.66
2023-05-04T13:34:47.876Z,68.18
2023-05-04T13:35:51.902Z,68.10
2023-05-04T13:36:58.215Z,67.36
2023-05-04T13:38:00.807Z,66.64
2023-05-04T13:39:04.070Z,67.50
2023-05-04T13:40:08.623Z,68.46
2023-05-04T13:41:13.038Z,69.26
2023-05-04T13:42:15.879Z,69.68
2023-05-04T13:43:19.818Z,70.05
2023-05-04T13:44:23.677Z,70.77
2023-05-04T13:45:26.855Z,71.23
2023-05-04T13:46:30.739Z,70.78
2023-05-04T13:47:34.876Z,69.50
2023-05-04T13:48:38.242Z,70.18
2023-05-04T13:49:41.228Z,69.98
2023-05-04T13:50:44.773Z,69.47
2023-05-04T13:51:47.679Z,69.51
2023-05-04T13:52:53.122Z,70.04
2023-05-04T13:53:56.809Z,70.34